LiveATC.Net - Listen to live air traffic control over the Internet!


ICAO: KDYB  IATA: DYB   Airport: Summerville Airport
City: Summerville   State/Province: South Carolina
Country: United States   Continent: North America
KDYB METAR Weather: KDYB 281415Z AUTO 00000KT 10SM CLR 27/21 A2991 RMK AO2
KDYB Flight Activity (FlightAware)
KDYB Airport Info   (iFlightPlanner)
KDYB VFR Sectional Chart   (iFlightPlanner) 
KDYB IFR Low Altitude Chart   (iFlightPlanner) 
KDYB IFR High Altitude Chart   (iFlightPlanner) 

KDYB CTAF
Feed Status: UP   Listeners: 0
Listen in your browser - HTML5 player (in browser, HTML5)
Click here to listen with your own player (launches your MP3 player)
Archive Access: KDYB CTAF
FacilityFrequency
Summerville CTAF123.000

NOTICE

Unauthorized use prohibited. See LiveATC.net Terms of Service


Airport/ARTCC Code
Frequency Search
(e.g., 124.400, 128.75)
Site-wide search
 


Browse Feeds
Top 50 Feeds
HF Oceanic Feeds
Coverage Map
Bad Weather Areas

LiveATC FAQ
Offer LiveATC feed
Contact LiveATC.net
Press Inquiries

LiveATC on iPhone
LiveATC on Android

LiveATC Mobile
(Mobile browser)

ATC Audio Archives
Interesting Recordings

LiveATC Forums


Home Page
About LiveATC.net


Terms of Use
Privacy Policy

AIRMETs/SIGMETs

FAA Airport Status
NAS Status
Arrival Demand


Server Software By:
Icecast.org
Liquidsoap